Latest Coastal Weather Observations for Montague Island

IDN60701

Issued at 9:25 pm EST Thursday 24 April 2014 (issued every 10 minutes, with the page automatically refreshed every 10 minutes)

About coastal observations | Map of coastal stations | Coastal observations for NSW | Marine services | Other Formats
Station Details ID: 069017 Name: MONTAGUE ISLAND LIGHTHOUSE Lat: -36.25 Lon: 150.23 Height: 52.0 m
Data from the previous 72 hours. | See also: Recent months at Montague Island
Date/Time
EST
Temp

°C
Wind Pressure Rain
since 9am
mm
Weather Cloud Vis
km
Sea
Height
m
Swell
Dir
 
Speed
knots
Gust
knots
hPa Trend Height
m
Period
s
Dir
24/09:00pm 16.6 S 25 31 1018.2 - 0.0 - - - - - - -
24/08:30pm 16.8 SSW 25 32 1017.8 - 0.0 - - - - - - -
24/08:00pm 17.0 S 26 33 1017.3 - 0.0 - - - - - - -
24/07:30pm 17.5 S 27 34 1016.7 - 0.0 - - - - - - -
24/07:00pm 17.7 S 28 34 1016.1 - 0.0 - - - - - - -
24/06:30pm 18.0 S 27 35 1015.8 - 0.0 - - - - - - -
24/06:00pm 18.5 S 26 32 1014.7 - 0.0 - - - - - - -
24/05:30pm 18.8 S 24 29 1014.3 - 0.0 - - - - - - -
24/05:00pm 19.3 S 23 28 1013.3 - 0.0 - - - - - - -
24/04:30pm 20.0 SSE 22 28 1012.9 - 0.0 - - - - - - -
24/04:00pm 20.4 SSE 25 30 1012.2 - 0.0 - - - - - - -
24/03:45pm 22.1 SE 22 24 1011.9 - 0.0 - - - - - - -
24/03:30pm 22.7 SE 11 14 1011.7 - 0.0 - - - - - - -
24/03:00pm 22.8 SE 13 15 1011.2 - 0.0 - - - - - - -
24/02:30pm 23.3 SE 9 11 1011.0 - 0.0 - - - - - - -
24/02:00pm 23.3 SE 6 10 1010.4 - 0.0 - - - - - - -
24/01:30pm 23.6 ESE 6 8 1010.4 - 0.0 - - - - - - -
24/01:00pm 23.2 ESE 7 9 1010.2 - 0.0 - - - - - - -
24/12:30pm 23.0 ESE 6 7 1010.4 - 0.0 - - - - - - -
24/12:00pm 23.2 SE 6 9 1010.6 - 0.0 - - - - - - -
24/11:30am 23.1 SE 4 6 1010.9 - 0.0 - - - - - - -
24/11:00am 24.0 WSW 3 5 1011.0 - 0.0 - - - - - - -
24/10:30am 23.6 NW 5 7 1011.1 - 0.0 - - - - - - -
24/10:00am 21.8 WNW 7 10 1011.0 - 0.0 - - - - - - -
24/09:30am 21.6 NW 3 6 1011.1 - 0.0 - - - - - - -
24/09:00am 20.9 N 2 4 1011.0 - 0.2 - - - - - - -
24/08:30am 21.0 N 3 4 1010.8 - 0.2 - - - - - - -
24/08:00am 20.3 W 3 4 1010.4 - 0.2 - - - - - - -
24/07:30am 20.4 NNW 4 6 1010.1 - 0.2 - - - - - - -
24/07:00am 20.1 NNW 5 7 1009.6 - 0.2 - - - - - - -
24/06:30am 20.1 NNW 7 9 1009.7 - 0.2 - - - - - - -
24/06:00am 20.0 NW 7 8 1009.6 - 0.2 - - - - - - -
24/05:30am 19.8 NNW 6 7 1009.7 - 0.2 - - - - - - -
24/05:00am 20.4 NNW 7 8 1009.8 - 0.2 - - - - - - -
24/04:30am 20.1 NNW 5 6 1010.0 - 0.2 - - - - - - -
24/04:00am 20.1 NNW 7 8 1009.9 - 0.2 - - - - - - -
24/03:30am 20.1 NW 6 8 1010.0 - 0.2 - - - - - - -
24/03:00am 20.1 NW 7 8 1010.0 - 0.2 - - - - - - -
24/02:30am 20.2 WNW 6 9 1010.5 - 0.2 - - - - - - -
24/02:00am 20.3 NW 7 9 1010.7 - 0.2 - - - - - - -
24/01:30am 20.4 NW 5 8 1011.0 - 0.2 - - - - - - -
24/01:00am 20.4 NW 4 5 1011.0 - 0.2 - - - - - - -
24/12:30am 21.2 NW 6 11 1011.3 - 0.2 - - - - - - -
24/12:00am 21.9 NNW 9 12 1011.5 - 0.2 - - - - - - -
 
Date/Time
EST
Temp

°C
Wind Pressure Rain
since 9am
mm
Weather Cloud Vis
km
Sea
Height
m
Swell
Dir
 
Speed
knots
Gust
knots
hPa Trend Height
m
Period
s
Dir
23/11:30pm 22.1 NNW 10 12 1011.7 - 0.2 - - - - - - -
23/11:00pm 22.4 NNW 12 16 1011.7 - 0.2 - - - - - - -
23/10:30pm 22.1 NNW 12 15 1012.0 - 0.2 - - - - - - -
23/10:00pm 22.1 NNW 13 15 1012.2 - 0.2 - - - - - - -
23/09:30pm 22.0 NNW 11 13 1012.5 - 0.2 - - - - - - -
23/09:00pm 21.6 NNW 12 15 1012.4 - 0.2 - - - - - - -
23/08:30pm 21.5 NNW 12 14 1012.5 - 0.2 - - - - - - -
23/08:00pm 21.2 NW 10 13 1012.5 - 0.2 - - - - - - -
23/07:30pm 21.8 NW 11 15 1012.7 - 0.2 - - - - - - -
23/07:00pm 22.2 NNW 15 18 1012.4 - 0.2 - - - - - - -
23/06:30pm 22.6 NNW 13 17 1012.0 - 0.2 - - - - - - -
23/06:00pm 22.4 N 15 19 1011.9 - 0.2 - - - - - - -
23/05:30pm 22.4 N 18 23 1011.8 - 0.2 - - - - - - -
23/05:00pm 21.9 NNE 18 22 1011.4 - 0.2 - - - - - - -
23/04:30pm 21.8 N 22 25 1011.4 - 0.2 - - - - - - -
23/04:00pm 22.3 N 21 26 1011.3 - 0.2 - - - - - - -
23/03:30pm 22.3 NNE 16 20 1011.8 - 0.2 - - - - - - -
23/03:00pm 22.3 NNE 18 22 1011.7 - 0.2 - - - - - - -
23/02:30pm 21.8 NNE 21 24 1011.9 - 0.2 - - - - - - -
23/02:00pm 21.2 NNE 20 24 1011.9 - 0.2 - - - - - - -
23/01:30pm 21.0 NNE 13 16 1012.7 - 0.2 - - - - - - -
23/01:00pm 21.1 N 13 18 1013.0 - 0.2 - - - - - - -
23/12:30pm 20.4 N 12 15 1013.9 - 0.2 - - - - - - -
23/12:00pm 20.4 N 11 14 1014.4 - 0.2 - - - - - - -
23/11:30am 20.0 NNE 8 10 1015.2 - 0.2 - - - - - - -
23/11:00am 19.7 NNE 4 5 1015.9 - 0.2 - - - - - - -
23/10:30am 19.9 N 2 5 1016.4 - 0.2 - - - - - - -
23/10:00am 19.4 ESE 2 4 1016.7 - 0.2 - - - - - - -
23/09:30am 19.5 S 6 7 1017.0 - 0.0 - - - - - - -
23/09:00am 19.3 SSW 8 10 1016.7 - - - - - - - - -
23/08:30am 19.3 SW 13 15 1016.9 - - - - - - - - -
23/08:00am 18.9 SW 13 16 1016.7 - - - - - - - - -
23/07:30am 18.2 SW 14 17 1016.9 - - - - - - - - -
23/07:00am 18.0 SW 17 20 1016.7 - - - - - - - - -
23/06:30am 18.1 SW 12 16 1016.1 - - - - - - - - -
23/06:00am 18.1 SW 14 17 1015.9 - - - - - - - - -
23/05:30am 18.0 SW 13 18 1016.0 - - - - - - - - -
23/05:00am 18.4 SW 14 17 1015.9 - - - - - - - - -
23/04:30am 19.1 S 15 18 1015.9 - - - - - - - - -
23/04:00am 19.0 S 14 19 1015.6 - - - - - - - - -
23/03:30am 18.4 SW 16 20 1015.8 - - - - - - - - -
23/03:00am 18.4 SW 16 20 1015.4 - 0.0 - - - - - - -
23/02:30am 18.7 SW 15 18 1016.0 - - - - - - - - -
23/02:00am 18.9 SW 13 16 1015.7 - - - - - - - - -
23/01:30am 19.4 SSW 11 14 1015.9 - - - - - - - - -
23/01:00am 19.5 SW 11 13 1016.0 - - - - - - - - -
23/12:30am 19.6 SSW 6 7 1015.9 - - - - - - - - -
23/12:00am 19.3 SW 5 5 1015.7 - - - - - - - - -
 
Date/Time
EST
Temp

°C
Wind Pressure Rain
since 9am
mm
Weather Cloud Vis
km
Sea
Height
m
Swell
Dir
 
Speed
knots
Gust
knots
hPa Trend Height
m
Period
s
Dir
22/11:30pm 19.0 W 5 6 1015.6 - - - - - - - - -
22/11:00pm 18.7 W 6 7 1015.6 - - - - - - - - -
22/10:30pm 19.0 WSW 6 8 1015.8 - - - - - - - - -
22/10:00pm 18.9 WSW 7 9 1015.8 - - - - - - - - -
22/09:30pm 19.2 WSW 7 8 1015.8 - - - - - - - - -
22/09:00pm 19.1 W 7 8 1015.6 - 0.0 - - - - - - -
22/08:30pm 19.9 WSW 11 14 1015.5 - - - - - - - - -
22/08:00pm 19.9 WSW 11 15 1015.1 - - - - - - - - -
22/07:30pm 20.0 WSW 13 17 1015.2 - - - - - - - - -
22/07:00pm 20.1 SW 14 17 1014.7 - - - - - - - - -
22/06:30pm 20.2 SW 15 18 1014.7 - - - - - - - - -
22/06:00pm 20.2 SW 18 22 1014.1 - - - - - - - - -
22/05:30pm 20.9 SW 16 19 1014.1 - - - - - - - - -
22/05:00pm 21.1 SSW 13 15 1013.8 - - - - - - - - -
22/04:30pm 21.5 SSW 12 15 1013.8 - - - - - - - - -
22/04:00pm 21.8 SSW 6 8 1013.7 - - - - - - - - -
22/03:30pm 22.0 SE 2 3 1013.7 - - - - - - - - -
22/03:00pm 22.7 WNW 3 4 1013.5 - - - - - - - - -
22/02:30pm 22.6 N 10 14 1012.8 - - - - - - - - -
22/02:00pm 22.4 N 11 14 1012.5 - - - - - - - - -
22/01:30pm 22.2 N 11 14 1012.9 - - - - - - - - -
22/01:00pm 22.6 N 10 14 1013.1 - - - - - - - - -
22/12:30pm 22.6 N 9 12 1013.9 - - - - - - - - -
22/12:00pm 21.8 NNW 13 15 1014.2 - 0.0 - - - - - - -
22/11:30am 21.0 NNW 11 14 1014.7 - 0.0 - - - - - - -
22/11:00am 20.3 NNW 9 11 1014.8 - 0.0 - - - - - - -
22/10:30am 19.9 N 6 8 1015.3 - 0.0 - - - - - - -
22/10:00am 19.5 NNW 7 9 1015.4 - 0.0 - - - - - - -
22/09:30am 18.9 N 7 8 1015.6 - 0.0 - - - - - - -
22/09:00am 18.3 NNW 8 10 1015.7 - 0.0 - - - - - - -
22/08:30am 17.3 NNW 9 11 1015.9 - 0.0 - - - - - - -
22/08:00am 17.0 NNW 9 11 1015.7 - 0.0 - - - - - - -
22/07:30am 17.3 NNW 12 14 1015.8 - 0.0 - - - - - - -
22/07:00am 17.2 N 13 14 1015.2 - 0.0 - - - - - - -
22/06:30am 16.8 N 13 16 1015.5 - 0.0 - - - - - - -
22/06:00am 16.5 N 11 14 1015.2 - 0.0 - - - - - - -
22/05:30am 16.4 NNW 10 12 1015.4 - 0.0 - - - - - - -
22/05:00am 16.1 NNW 9 11 1015.3 - 0.0 - - - - - - -
22/04:30am 16.6 NNW 11 13 1015.6 - 0.0 - - - - - - -
22/04:00am 17.0 NNW 12 15 1015.4 - 0.0 - - - - - - -
22/03:30am 17.2 NNW 14 16 1015.7 - 0.0 - - - - - - -
22/03:00am 17.5 NNW 13 16 1015.7 - 0.0 - - - - - - -
22/02:30am 17.6 NNW 14 18 1016.1 - 0.0 - - - - - - -
22/02:00am 17.6 N 14 18 1016.2 - 0.0 - - - - - - -
22/01:30am 17.9 N 14 18 1016.7 - 0.0 - - - - - - -
22/01:00am 18.5 NNW 17 22 1017.0 - 0.0 - - - - - - -
22/12:30am 18.6 N 15 22 1017.4 - 0.0 - - - - - - -
22/12:00am 18.6 N 15 20 1017.3 - 0.0 - - - - - - -
 
Date/Time
EST
Temp

°C
Wind Pressure Rain
since 9am
mm
Weather Cloud Vis
km
Sea
Height
m
Swell
Dir
 
Speed
knots
Gust
knots
hPa Trend Height
m
Period
s
Dir
21/11:30pm 18.7 N 15 19 1017.9 - 0.0 - - - - - - -
21/11:00pm 18.7 N 13 17 1018.0 - 0.0 - - - - - - -
21/10:30pm 18.6 N 12 16 1018.3 - 0.0 - - - - - - -
21/10:00pm 18.5 NNW 13 17 1018.5 - 0.0 - - - - - - -
21/09:30pm 18.5 NNW 14 17 1018.8 - 0.0 - - - - - - -

Other Formats:

Comma delimited format used in spreadsheet applications
http://www.bom.gov.au/fwo/IDN60701/IDN60701.94939.axf

JavaScript Object Notation format (JSON) in row-major order
http://www.bom.gov.au/fwo/IDN60701/IDN60701.94939.json